Time;durP1;ratioP1;P1;durP2;ratioP2;P2;SDS_P1;SDS_P2;PMS_P1;PMS_P2;Temp;Humidity;BMP_temperature;BMP_pressure;BME280_temperature;BME280_humidity;BME280_pressure;Samples;Min_cycle;Max_cycle;Signal;HPM_P1;HPM_P2
2020/12/26 00:01:31;;;;;;;15.07;10.67;;;2.80;99.90;;;;;;4955545;28;20482;-79
2020/12/26 00:03:59;;;;;;;12.27;11.07;;;2.80;99.90;;;;;;4952920;28;20220;-79
2020/12/26 00:06:24;;;;;;;18.93;12.50;;;2.80;99.90;;;;;;4942963;28;20996;-79
2020/12/26 00:08:53;;;;;;;13.93;11.60;;;2.80;99.90;;;;;;4942290;28;20481;-79
2020/12/26 00:11:21;;;;;;;16.93;11.13;;;2.70;99.90;;;;;;4955731;28;20317;-79
2020/12/26 00:13:49;;;;;;;11.70;10.40;;;2.80;99.90;;;;;;4936799;28;20436;-79
2020/12/26 00:16:16;;;;;;;17.57;11.80;;;2.80;99.90;;;;;;4938335;28;20401;-79
2020/12/26 00:18:42;;;;;;;15.50;11.50;;;2.80;99.90;;;;;;4937125;28;20379;-79
2020/12/26 00:21:10;;;;;;;14.80;11.40;;;2.70;99.90;;;;;;4969588;28;20468;-79
2020/12/26 00:24:04;;;;;;;14.60;11.17;;;2.80;99.90;;;;;;4956280;28;20505;-79
2020/12/26 00:26:30;;;;;;;14.97;11.70;;;2.80;99.90;;;;;;4941727;28;20889;-79
2020/12/26 00:28:56;;;;;;;15.60;11.00;;;2.80;99.90;;;;;;4940579;28;20522;-79
2020/12/26 00:31:23;;;;;;;15.43;11.70;;;2.80;99.90;;;;;;4937805;28;20308;-80
2020/12/26 00:33:48;;;;;;;23.40;11.27;;;2.80;99.90;;;;;;4966889;28;20282;-80
2020/12/26 00:36:14;;;;;;;16.70;11.50;;;2.80;99.90;;;;;;4979026;28;20451;-80
2020/12/26 00:38:42;;;;;;;13.10;10.93;;;2.80;99.90;;;;;;4961758;28;20361;-80
2020/12/26 00:41:34;;;;;;;14.23;10.90;;;2.80;99.90;;;;;;4996082;28;20394;-80
2020/12/26 00:44:01;;;;;;;12.50;10.03;;;2.90;99.90;;;;;;4951578;28;20405;-80
2020/12/26 00:46:27;;;;;;;16.50;11.33;;;2.90;99.90;;;;;;4953989;28;20414;-80
2020/12/26 00:48:54;;;;;;;16.03;11.83;;;2.90;99.90;;;;;;4919750;28;20387;-80
2020/12/26 00:51:48;;;;;;;13.57;10.53;;;2.90;99.90;;;;;;4921102;28;20397;-80
2020/12/26 00:54:40;;;;;;;21.70;12.80;;;2.90;99.90;;;;;;4900261;29;20414;-80
2020/12/26 00:57:07;;;;;;;17.50;12.30;;;2.90;99.90;;;;;;4856658;29;20416;-80
2020/12/26 00:59:35;;;;;;;16.20;11.23;;;2.90;99.90;;;;;;4864352;29;20381;-79
2020/12/26 01:02:02;;;;;;;22.43;12.33;;;2.90;99.90;;;;;;4829833;29;20444;-80
2020/12/26 01:04:27;;;;;;;16.80;11.30;;;3.00;99.90;;;;;;4854344;29;20434;-80
2020/12/26 01:06:57;;;;;;;18.93;11.17;;;2.90;99.90;;;;;;4900082;29;20444;-80
2020/12/26 01:09:23;;;;;;;24.30;11.70;;;2.90;99.90;;;;;;4897362;29;20245;-80
2020/12/26 01:11:50;;;;;;;20.73;11.57;;;2.90;99.90;;;;;;4881903;29;20437;-80
2020/12/26 01:14:16;;;;;;;18.00;11.10;;;2.90;99.90;;;;;;4900320;29;20384;-80
2020/12/26 01:16:43;;;;;;;16.30;12.50;;;3.00;99.90;;;;;;4883710;29;20839;-80
2020/12/26 01:19:09;;;;;;;14.30;12.90;;;3.00;99.90;;;;;;4897426;29;20479;-80
2020/12/26 01:22:01;;;;;;;17.43;11.23;;;3.00;99.90;;;;;;4899990;28;22411;-81
2020/12/26 01:24:26;;;;;;;23.60;12.07;;;3.00;99.90;;;;;;4891206;29;20227;-81
2020/12/26 01:26:54;;;;;;;22.20;11.73;;;3.00;99.90;;;;;;4866455;29;20489;-81
2020/12/26 01:29:21;;;;;;;18.53;13.40;;;3.00;99.90;;;;;;4864476;29;20219;-80
2020/12/26 01:31:51;;;;;;;19.33;11.87;;;3.00;99.90;;;;;;4925274;28;20429;-80
2020/12/26 01:34:18;;;;;;;14.93;11.23;;;3.00;99.90;;;;;;4957673;28;20389;-80
2020/12/26 01:36:50;;;;;;;18.87;11.33;;;2.90;99.90;;;;;;4992092;28;20461;-80
2020/12/26 01:39:42;;;;;;;22.73;13.20;;;3.00;99.90;;;;;;4991348;28;20983;-80
2020/12/26 01:42:07;;;;;;;13.73;11.27;;;3.00;99.90;;;;;;4932819;28;20514;-79
2020/12/26 01:44:33;;;;;;;12.43;11.13;;;2.90;99.90;;;;;;4916456;28;20437;-80
2020/12/26 01:47:25;;;;;;;21.90;12.30;;;2.90;99.90;;;;;;4916748;28;20252;-80
2020/12/26 01:49:53;;;;;;;16.10;11.37;;;2.90;99.90;;;;;;4895297;29;20223;-80
2020/12/26 01:52:45;;;;;;;16.93;11.83;;;3.00;99.90;;;;;;4893692;29;20433;-81
2020/12/26 01:55:13;;;;;;;16.03;11.43;;;2.90;99.90;;;;;;4855681;29;20408;-80
2020/12/26 01:58:15;;;;;;;15.90;11.30;;;2.90;99.90;;;;;;4842334;29;20469;-80
2020/12/26 02:01:13;;;;;;;12.50;10.57;;;3.00;99.90;;;;;;4864184;29;20449;-80
2020/12/26 02:03:42;;;;;;;17.83;9.90;;;3.00;99.90;;;;;;4800710;29;20997;-80
2020/12/26 02:06:08;;;;;;;13.40;9.60;;;3.00;99.90;;;;;;4806530;29;20442;-80
2020/12/26 02:08:38;;;;;;;12.73;8.87;;;3.00;99.90;;;;;;4820184;29;20433;-80
2020/12/26 02:11:06;;;;;;;15.17;9.90;;;3.00;99.90;;;;;;4812902;29;20417;-80
2020/12/26 02:13:34;;;;;;;11.20;10.07;;;3.00;99.90;;;;;;4804031;29;20410;-80
2020/12/26 02:16:07;;;;;;;13.70;9.00;;;3.00;99.90;;;;;;4808963;29;20446;-80
2020/12/26 02:18:34;;;;;;;13.23;8.90;;;3.00;99.90;;;;;;4826125;29;20452;-80
2020/12/26 02:21:02;;;;;;;13.93;9.83;;;3.00;99.90;;;;;;4842631;29;20915;-80
2020/12/26 02:23:30;;;;;;;14.60;9.30;;;3.10;99.90;;;;;;4835814;29;20525;-80
2020/12/26 02:25:57;;;;;;;11.60;8.83;;;3.10;99.90;;;;;;4831456;29;20898;-80
2020/12/26 02:28:24;;;;;;;8.93;8.03;;;3.10;99.90;;;;;;4891986;29;20410;-80
2020/12/26 02:30:51;;;;;;;19.00;8.80;;;3.10;99.90;;;;;;4870870;29;20398;-80
2020/12/26 02:33:16;;;;;;;10.53;9.50;;;3.20;99.90;;;;;;4914341;28;20432;-81
2020/12/26 02:35:48;;;;;;;12.67;9.43;;;3.20;99.90;;;;;;4926222;28;20418;-80
2020/12/26 02:38:15;;;;;;;14.50;9.60;;;3.10;99.90;;;;;;4938574;28;20279;-80
2020/12/26 02:40:41;;;;;;;13.90;9.83;;;3.10;99.90;;;;;;5014521;28;20506;-80
2020/12/26 02:43:25;;;;;;;13.50;10.20;;;3.10;99.90;;;;;;5042458;28;20412;-80
2020/12/26 02:45:55;;;;;;;11.33;9.73;;;3.00;99.90;;;;;;5052572;28;20433;-81
2020/12/26 02:48:22;;;;;;;17.37;9.60;;;3.00;99.90;;;;;;5039984;28;20532;-80
2020/12/26 02:50:49;;;;;;;13.53;10.53;;;3.00;99.90;;;;;;5064035;28;20418;-80
2020/12/26 02:53:15;;;;;;;22.20;9.83;;;3.00;99.90;;;;;;5030237;28;20397;-80
2020/12/26 02:55:41;;;;;;;11.70;10.23;;;3.00;99.90;;;;;;5018151;28;21014;-80
2020/12/26 02:58:06;;;;;;;14.50;10.57;;;2.90;99.90;;;;;;5046447;28;20469;-80
2020/12/26 03:00:33;;;;;;;12.10;9.77;;;2.90;99.90;;;;;;5029317;28;20204;-80
2020/12/26 03:02:58;;;;;;;11.30;9.90;;;2.90;99.90;;;;;;5026108;28;20249;-80
2020/12/26 03:05:24;;;;;;;14.00;10.93;;;2.90;99.90;;;;;;5035612;28;20854;-80
2020/12/26 03:07:50;;;;;;;13.13;9.43;;;2.90;99.90;;;;;;5027006;28;20215;-80
2020/12/26 03:10:17;;;;;;;10.70;9.60;;;2.90;99.90;;;;;;5049669;28;20460;-80
2020/12/26 03:12:42;;;;;;;16.67;11.47;;;2.90;99.90;;;;;;5067259;28;20499;-80
2020/12/26 03:15:09;;;;;;;13.10;10.00;;;3.00;99.90;;;;;;5030987;28;20546;-80
2020/12/26 03:17:35;;;;;;;14.80;10.40;;;3.00;99.90;;;;;;5033232;28;20711;-80
2020/12/26 03:20:02;;;;;;;15.97;12.20;;;3.00;99.90;;;;;;5028680;28;20404;-79
2020/12/26 03:22:28;;;;;;;16.23;10.57;;;3.00;99.90;;;;;;5052812;28;20295;-79
2020/12/26 03:24:54;;;;;;;16.40;10.30;;;3.00;99.90;;;;;;5044308;28;20488;-79
2020/12/26 03:27:21;;;;;;;16.33;10.90;;;3.00;99.90;;;;;;5028162;28;20488;-79
2020/12/26 03:30:12;;;;;;;14.90;11.07;;;3.00;99.90;;;;;;5051332;28;20499;-79
2020/12/26 03:33:06;;;;;;;10.67;9.57;;;3.00;99.90;;;;;;5030540;28;20477;-79
2020/12/26 03:35:33;;;;;;;10.97;9.87;;;3.00;99.90;;;;;;4993014;28;22950;-79
2020/12/26 03:38:00;;;;;;;12.83;10.50;;;3.00;99.90;;;;;;4971658;28;20404;-79
2020/12/26 03:40:26;;;;;;;15.20;11.10;;;3.10;99.90;;;;;;4971400;28;20504;-79
2020/12/26 03:42:54;;;;;;;12.33;10.53;;;3.10;99.90;;;;;;4975790;28;20406;-79
2020/12/26 03:45:47;;;;;;;16.43;13.73;;;3.10;99.90;;;;;;4969191;28;20416;-79
2020/12/26 03:48:12;;;;;;;18.67;13.20;;;3.00;99.90;;;;;;4934970;28;20529;-79
2020/12/26 03:50:38;;;;;;;18.47;11.30;;;3.00;99.90;;;;;;4965593;28;21243;-79
2020/12/26 03:53:05;;;;;;;18.37;11.87;;;3.10;99.90;;;;;;4936605;28;20216;-81
2020/12/26 03:55:30;;;;;;;17.07;12.87;;;3.00;99.90;;;;;;4948976;28;20219;-81
2020/12/26 03:57:57;;;;;;;17.90;11.43;;;3.00;99.90;;;;;;4975284;28;20456;-82
2020/12/26 04:00:24;;;;;;;18.60;10.97;;;3.00;99.90;;;;;;4970047;28;20254;-82
2020/12/26 04:02:50;;;;;;;17.37;11.50;;;3.00;99.90;;;;;;4959136;28;20427;-82
2020/12/26 04:05:43;;;;;;;22.27;12.30;;;3.00;99.90;;;;;;4951981;28;20441;-81
2020/12/26 04:08:09;;;;;;;14.03;12.50;;;2.90;99.90;;;;;;4933984;28;20213;-82
2020/12/26 04:10:36;;;;;;;13.57;11.50;;;3.00;99.90;;;;;;4919111;28;20453;-82
2020/12/26 04:13:29;;;;;;;17.80;12.10;;;3.10;99.90;;;;;;4904728;28;20289;-82
2020/12/26 04:15:55;;;;;;;20.97;12.27;;;3.00;99.90;;;;;;4920471;28;20949;-82
2020/12/26 04:18:20;;;;;;;20.00;11.50;;;3.00;99.90;;;;;;4936537;28;20436;-82
2020/12/26 04:20:46;;;;;;;18.37;10.97;;;3.10;99.90;;;;;;4950033;28;20220;-83
2020/12/26 04:23:12;;;;;;;13.07;10.40;;;3.00;99.90;;;;;;4937174;28;20212;-82
2020/12/26 04:25:38;;;;;;;14.07;11.00;;;3.00;99.90;;;;;;4939234;28;20267;-82
2020/12/26 04:28:04;;;;;;;12.80;11.50;;;3.10;99.90;;;;;;4934795;28;20221;-82
2020/12/26 04:30:32;;;;;;;16.70;11.20;;;3.10;99.90;;;;;;4895727;28;20411;-82
2020/12/26 04:32:57;;;;;;;14.13;9.77;;;3.10;99.90;;;;;;4934220;28;20308;-82
2020/12/26 04:35:23;;;;;;;11.40;9.23;;;3.10;99.90;;;;;;4917451;28;21376;-82
2020/12/26 04:37:50;;;;;;;13.47;10.27;;;3.20;99.90;;;;;;4900732;28;20212;-82
2020/12/26 04:40:16;;;;;;;13.63;10.93;;;3.20;99.90;;;;;;4933978;28;20338;-81
2020/12/26 04:43:09;;;;;;;22.37;12.90;;;3.20;99.90;;;;;;4946987;28;20442;-81
2020/12/26 04:46:07;;;;;;;14.37;12.07;;;3.30;99.90;;;;;;4970046;28;20277;-81
2020/12/26 04:48:35;;;;;;;15.07;12.40;;;3.30;99.90;;;;;;4986585;28;20848;-82
2020/12/26 04:51:03;;;;;;;17.00;14.53;;;3.20;99.90;;;;;;4930851;28;20522;-81
2020/12/26 04:54:09;;;;;;;20.27;14.00;;;3.30;99.90;;;;;;4941809;28;20433;-82
2020/12/26 04:56:41;;;;;;;22.03;14.83;;;3.30;99.90;;;;;;4876560;29;21113;-82
2020/12/26 04:59:09;;;;;;;23.57;15.30;;;3.20;99.90;;;;;;4876370;29;20943;-82
2020/12/26 05:02:01;;;;;;;22.23;17.37;;;3.20;99.90;;;;;;4873322;29;20437;-82
2020/12/26 05:04:27;;;;;;;23.57;17.63;;;3.20;99.90;;;;;;4840044;29;20607;-82
2020/12/26 05:06:53;;;;;;;21.90;17.67;;;3.20;99.90;;;;;;4802767;29;20434;-82
2020/12/26 05:09:22;;;;;;;27.07;18.30;;;3.20;99.90;;;;;;4854786;29;20686;-82
2020/12/26 05:12:14;;;;;;;23.70;16.03;;;3.20;99.90;;;;;;4841540;29;20552;-82
2020/12/26 05:14:41;;;;;;;24.60;16.73;;;3.30;99.90;;;;;;4796912;29;20418;-82
2020/12/26 05:17:06;;;;;;;21.70;16.50;;;3.30;99.90;;;;;;4788372;29;20418;-82
2020/12/26 05:19:32;;;;;;;21.97;16.50;;;3.30;99.90;;;;;;4774257;29;20436;-82
2020/12/26 05:21:57;;;;;;;23.37;16.60;;;3.30;99.90;;;;;;4761950;29;20303;-82
2020/12/26 05:24:24;;;;;;;19.30;15.13;;;3.30;99.90;;;;;;4768054;29;20233;-82
2020/12/26 05:26:52;;;;;;;23.97;13.93;;;3.40;99.90;;;;;;4844610;29;20462;-82
2020/12/26 05:29:21;;;;;;;17.17;13.30;;;3.40;99.90;;;;;;4842863;29;21358;-84
2020/12/26 05:31:57;;;;;;;14.93;12.10;;;3.40;99.90;;;;;;4898977;29;20429;-84
2020/12/26 05:34:29;;;;;;;19.43;14.70;;;3.50;99.90;;;;;;4912942;29;20430;-82
2020/12/26 05:36:58;;;;;;;19.70;14.10;;;3.50;99.90;;;;;;4891180;29;20892;-83
2020/12/26 05:39:29;;;;;;;20.47;14.23;;;3.50;99.90;;;;;;4882150;29;20440;-83
2020/12/26 05:41:55;;;;;;;19.40;15.00;;;3.50;99.90;;;;;;4927209;28;20427;-83
2020/12/26 05:44:51;;;;;;;18.50;16.60;;;3.40;99.90;;;;;;4970934;28;20423;-83
2020/12/26 05:47:24;;;;;;;25.47;17.83;;;3.40;99.90;;;;;;4901254;29;20422;-83
2020/12/26 05:50:24;;;;;;;23.53;17.20;;;3.40;99.90;;;;;;4900799;29;20424;-83
2020/12/26 05:52:54;;;;;;;24.70;18.57;;;3.30;99.90;;;;;;4943723;28;20417;-84
2020/12/26 05:55:22;;;;;;;19.43;17.43;;;3.30;99.90;;;;;;4959695;28;20409;-82
2020/12/26 05:58:13;;;;;;;25.20;17.60;;;3.50;99.90;;;;;;4975499;28;20510;-83
2020/12/26 06:00:41;;;;;;;25.93;17.80;;;3.30;99.90;;;;;;4928579;29;20652;-83
2020/12/26 06:03:26;;;;;;;26.03;19.50;;;3.20;99.90;;;;;;4901378;29;20500;-82
2020/12/26 06:05:57;;;;;;;26.70;19.20;;;3.30;99.90;;;;;;4902064;29;20604;-82
2020/12/26 06:08:23;;;;;;;22.20;19.00;;;3.30;99.90;;;;;;4917105;28;20478;-83
2020/12/26 06:10:53;;;;;;;28.37;18.57;;;3.30;99.90;;;;;;4909951;29;20400;-82
2020/12/26 06:13:20;;;;;;;24.57;18.93;;;3.40;99.90;;;;;;4898161;29;21227;-83
2020/12/26 06:16:10;;;;;;;24.93;19.53;;;3.30;99.90;;;;;;4929621;28;20436;-82
2020/12/26 06:18:41;;;;;;;28.13;18.50;;;3.20;99.90;;;;;;4901961;29;20443;-82
2020/12/26 06:21:07;;;;;;;23.17;17.23;;;3.20;99.90;;;;;;4900426;29;20602;-81
2020/12/26 06:23:36;;;;;;;23.50;15.80;;;3.20;99.90;;;;;;4948207;28;21347;-81
2020/12/26 06:26:02;;;;;;;23.10;15.73;;;3.30;99.90;;;;;;4954596;28;20414;-81
2020/12/26 06:28:33;;;;;;;18.97;13.67;;;3.30;99.90;;;;;;4967518;28;20426;-82
2020/12/26 06:31:01;;;;;;;18.53;14.40;;;3.20;99.90;;;;;;4965517;28;20445;-81
2020/12/26 06:33:30;;;;;;;16.80;13.57;;;3.20;99.90;;;;;;4962942;28;20421;-82
2020/12/26 06:35:58;;;;;;;23.53;18.00;;;3.20;99.90;;;;;;4969140;28;20813;-82
2020/12/26 06:38:29;;;;;;;20.70;13.87;;;3.20;99.90;;;;;;5037463;28;20743;-82
2020/12/26 06:41:06;;;;;;;17.00;14.87;;;3.20;99.90;;;;;;5049378;28;20421;-82
2020/12/26 06:43:50;;;;;;;20.13;16.37;;;3.30;99.90;;;;;;5051083;28;20428;-82
2020/12/26 06:46:21;;;;;;;24.90;16.60;;;3.20;99.90;;;;;;5035269;28;20520;-82
2020/12/26 06:48:52;;;;;;;24.23;15.43;;;3.20;99.90;;;;;;5029774;28;20435;-82
2020/12/26 06:51:36;;;;;;;25.23;15.90;;;3.20;99.90;;;;;;5050124;28;20505;-82
2020/12/26 06:54:07;;;;;;;24.13;15.00;;;3.20;99.90;;;;;;5040543;28;20434;-82
2020/12/26 06:56:35;;;;;;;16.53;14.20;;;3.10;99.90;;;;;;5047907;28;20476;-82
2020/12/26 06:59:06;;;;;;;24.63;15.80;;;3.20;99.90;;;;;;5056061;28;20406;-82
2020/12/26 07:01:33;;;;;;;23.17;16.47;;;3.20;99.90;;;;;;5051293;28;20397;-82
2020/12/26 07:04:10;;;;;;;21.10;14.93;;;3.10;99.90;;;;;;5050210;28;20386;-82
2020/12/26 07:06:41;;;;;;;22.30;16.00;;;3.10;99.90;;;;;;5049001;28;20453;-82
2020/12/26 07:09:10;;;;;;;19.00;14.50;;;3.00;99.90;;;;;;5033150;28;20376;-83
2020/12/26 07:12:06;;;;;;;17.87;14.87;;;2.90;99.90;;;;;;5052180;28;20849;-82
2020/12/26 07:14:35;;;;;;;17.03;13.23;;;2.90;99.90;;;;;;4951247;28;20402;-82
2020/12/26 07:17:02;;;;;;;19.10;14.17;;;2.80;99.90;;;;;;4950748;28;20413;-82
2020/12/26 07:19:46;;;;;;;24.43;16.13;;;2.80;99.90;;;;;;4952965;28;21233;-82
2020/12/26 07:22:43;;;;;;;25.27;15.97;;;2.80;99.90;;;;;;4964841;28;21470;-82
2020/12/26 07:25:39;;;;;;;20.97;14.97;;;2.80;99.90;;;;;;4914329;29;21258;-82
2020/12/26 07:28:07;;;;;;;19.57;14.97;;;3.00;99.90;;;;;;4823239;29;20400;-83
2020/12/26 07:30:36;;;;;;;20.33;15.40;;;3.00;99.90;;;;;;4824878;29;20460;-81
2020/12/26 07:33:02;;;;;;;21.37;15.03;;;3.10;99.90;;;;;;4840780;29;21027;-81
2020/12/26 07:36:01;;;;;;;17.47;15.20;;;3.20;99.90;;;;;;4842041;29;20462;-82
2020/12/26 07:38:26;;;;;;;19.47;15.37;;;3.30;99.90;;;;;;4753177;29;21022;-82
2020/12/26 07:40:52;;;;;;;17.77;12.17;;;3.30;99.90;;;;;;4754750;29;20602;-82
2020/12/26 07:43:18;;;;;;;18.87;14.57;;;3.30;99.90;;;;;;4772562;29;20279;-81
2020/12/26 07:45:48;;;;;;;28.60;19.30;;;3.30;99.90;;;;;;4784135;29;20350;-82
2020/12/26 07:48:14;;;;;;;21.57;13.67;;;3.10;99.90;;;;;;4793865;29;20438;-82
2020/12/26 07:50:42;;;;;;;16.00;12.30;;;3.20;99.90;;;;;;4797425;29;20464;-82
2020/12/26 07:53:11;;;;;;;22.70;14.57;;;3.30;99.90;;;;;;4818857;29;20292;-81
2020/12/26 07:55:37;;;;;;;22.10;16.20;;;3.30;99.90;;;;;;4805747;29;20423;-81
2020/12/26 07:58:11;;;;;;;19.37;13.97;;;3.30;99.90;;;;;;4807229;29;20453;-81
2020/12/26 08:00:39;;;;;;;21.17;15.20;;;3.30;99.90;;;;;;4820117;29;20508;-81
2020/12/26 08:03:08;;;;;;;20.13;14.77;;;3.30;99.90;;;;;;4843594;29;20484;-81
2020/12/26 08:05:37;;;;;;;21.30;16.30;;;3.30;99.90;;;;;;4932715;28;20420;-81
2020/12/26 08:08:24;;;;;;;22.90;15.07;;;3.30;99.90;;;;;;4948407;28;20804;-81
2020/12/26 08:11:00;;;;;;;25.13;17.63;;;3.30;99.90;;;;;;4934477;28;20426;-81
2020/12/26 08:13:27;;;;;;;25.17;17.27;;;3.40;99.90;;;;;;4981234;28;20921;-82
2020/12/26 08:16:03;;;;;;;20.93;15.77;;;3.40;99.90;;;;;;5065636;28;20416;-81
2020/12/26 08:18:31;;;;;;;22.03;15.00;;;3.40;99.90;;;;;;5033761;28;20507;-81
2020/12/26 08:20:57;;;;;;;20.67;14.20;;;3.40;99.90;;;;;;5031395;28;20430;-81
2020/12/26 08:23:22;;;;;;;18.90;14.03;;;3.40;99.90;;;;;;5035212;28;20393;-81
2020/12/26 08:25:48;;;;;;;20.33;13.50;;;3.40;99.90;;;;;;5010613;28;20232;-81
2020/12/26 08:28:21;;;;;;;22.63;14.17;;;3.40;99.90;;;;;;5029896;28;20236;-83
2020/12/26 08:30:53;;;;;;;21.77;13.73;;;3.40;99.90;;;;;;5036345;28;20219;-82
2020/12/26 08:33:19;;;;;;;16.23;14.03;;;3.40;99.90;;;;;;5053658;28;20472;-82
2020/12/26 08:36:34;;;;;;;14.60;13.07;;;3.40;99.90;;;;;;5040591;28;20441;-82
2020/12/26 08:39:01;;;;;;;15.47;11.87;;;3.40;99.90;;;;;;5026993;28;20224;-83
2020/12/26 08:41:32;;;;;;;17.40;12.93;;;3.50;99.90;;;;;;5047893;28;20534;-82
2020/12/26 08:43:58;;;;;;;16.17;10.67;;;3.60;99.90;;;;;;5062411;28;20421;-82
2020/12/26 08:46:27;;;;;;;22.40;13.47;;;3.70;99.90;;;;;;5024770;28;21062;-82
2020/12/26 08:48:57;;;;;;;14.63;12.80;;;3.80;99.90;;;;;;5031722;28;20210;-83
2020/12/26 08:51:26;;;;;;;18.43;12.60;;;3.80;99.90;;;;;;5035914;28;20444;-82
2020/12/26 08:53:53;;;;;;;15.93;11.30;;;3.70;99.90;;;;;;5047709;28;20426;-82
2020/12/26 08:56:36;;;;;;;17.67;13.03;;;3.70;99.90;;;;;;5009886;28;20587;-83
2020/12/26 08:59:03;;;;;;;17.40;11.20;;;3.70;99.90;;;;;;5031581;28;20555;-83
2020/12/26 09:01:29;;;;;;;13.93;11.63;;;3.80;99.90;;;;;;5047795;28;20404;-82
2020/12/26 09:03:58;;;;;;;16.57;11.47;;;3.70;99.90;;;;;;5026505;28;20802;-82
2020/12/26 09:06:43;;;;;;;26.90;15.93;;;3.70;99.90;;;;;;5050327;28;20213;-82
2020/12/26 09:09:18;;;;;;;18.10;11.43;;;3.70;99.90;;;;;;5046482;28;20404;-82
2020/12/26 09:11:46;;;;;;;17.97;10.73;;;3.70;99.90;;;;;;5040498;28;21232;-82
2020/12/26 09:14:20;;;;;;;12.67;9.33;;;3.70;99.90;;;;;;5029268;28;20393;-82
2020/12/26 09:16:47;;;;;;;11.10;9.10;;;3.60;99.90;;;;;;5051547;28;21016;-82
2020/12/26 09:19:12;;;;;;;21.00;13.57;;;3.70;99.90;;;;;;5037477;28;20395;-82
2020/12/26 09:21:38;;;;;;;19.50;13.43;;;3.70;99.90;;;;;;5053193;28;20536;-82
2020/12/26 09:24:19;;;;;;;16.30;11.83;;;3.80;99.90;;;;;;5036308;28;20208;-82
2020/12/26 09:26:45;;;;;;;22.30;12.90;;;3.80;99.90;;;;;;5038599;28;20755;-82
2020/12/26 09:29:21;;;;;;;14.10;10.83;;;3.90;99.90;;;;;;5042364;28;20427;-82
2020/12/26 09:31:46;;;;;;;18.70;13.20;;;3.90;99.90;;;;;;5056216;28;20390;-82
2020/12/26 09:34:20;;;;;;;16.77;10.77;;;4.00;99.90;;;;;;5040956;28;20415;-82
2020/12/26 09:37:06;;;;;;;15.77;11.60;;;3.90;99.90;;;;;;5015005;28;20213;-82
2020/12/26 09:39:33;;;;;;;12.40;10.27;;;4.20;99.90;;;;;;5070366;28;20454;-82
2020/12/26 09:42:01;;;;;;;14.30;9.20;;;4.10;99.90;;;;;;5054580;28;20891;-82
2020/12/26 09:44:26;;;;;;;13.97;10.17;;;4.20;99.90;;;;;;5068295;28;20461;-82
2020/12/26 09:46:59;;;;;;;15.00;9.47;;;4.60;99.90;;;;;;5015304;28;20459;-82
2020/12/26 09:49:25;;;;;;;14.23;9.80;;;4.40;99.90;;;;;;5068762;28;20220;-82
2020/12/26 09:51:51;;;;;;;16.17;10.20;;;4.50;99.90;;;;;;5058766;28;20418;-82
2020/12/26 09:54:19;;;;;;;10.53;9.33;;;4.40;99.90;;;;;;5040743;28;20475;-83
2020/12/26 09:56:45;;;;;;;13.07;9.77;;;4.30;99.90;;;;;;5052278;28;20418;-82
2020/12/26 09:59:12;;;;;;;14.07;11.07;;;4.50;99.90;;;;;;5039803;28;20473;-82
2020/12/26 10:01:39;;;;;;;11.40;9.60;;;4.20;99.90;;;;;;5038503;28;20408;-83
2020/12/26 10:04:06;;;;;;;12.07;7.87;;;4.30;99.90;;;;;;5034056;28;20944;-83
2020/12/26 10:06:32;;;;;;;14.73;9.37;;;4.40;99.90;;;;;;5027599;28;20406;-82
2020/12/26 10:08:58;;;;;;;12.40;9.83;;;4.40;99.90;;;;;;5017754;28;20446;-82
2020/12/26 10:11:25;;;;;;;11.60;8.80;;;4.30;99.90;;;;;;5042943;28;20216;-83
2020/12/26 10:13:51;;;;;;;10.47;9.07;;;4.40;99.90;;;;;;5046460;28;20423;-83
2020/12/26 10:16:18;;;;;;;13.07;10.50;;;4.50;99.90;;;;;;5043133;28;20460;-83
2020/12/26 10:18:47;;;;;;;10.60;7.70;;;4.20;99.90;;;;;;5029788;28;20300;-83
2020/12/26 10:21:17;;;;;;;19.40;12.47;;;4.40;99.90;;;;;;5013460;28;20420;-83
2020/12/26 10:23:47;;;;;;;11.13;9.93;;;4.40;99.90;;;;;;5040099;28;21343;-83
2020/12/26 10:26:14;;;;;;;19.03;10.37;;;4.40;99.90;;;;;;5009644;28;20426;-84
2020/12/26 10:28:40;;;;;;;11.17;9.17;;;4.70;99.90;;;;;;5036043;28;20439;-82
2020/12/26 10:31:06;;;;;;;15.00;10.90;;;5.10;99.90;;;;;;5008409;28;20458;-83
2020/12/26 10:33:32;;;;;;;14.57;8.27;;;5.60;99.90;;;;;;5031122;28;20290;-82
2020/12/26 10:35:57;;;;;;;10.90;7.70;;;5.20;99.90;;;;;;5015535;28;20451;-83
2020/12/26 10:38:23;;;;;;;13.33;9.33;;;5.00;99.90;;;;;;4994734;28;20215;-82
2020/12/26 10:40:49;;;;;;;14.57;8.90;;;5.30;99.90;;;;;;5033740;28;20314;-82
2020/12/26 10:43:16;;;;;;;19.47;12.80;;;5.20;99.90;;;;;;5034141;28;20219;-84
2020/12/26 10:45:42;;;;;;;16.80;9.70;;;5.30;99.90;;;;;;5032583;28;20481;-81
2020/12/26 10:48:07;;;;;;;17.93;11.20;;;4.90;99.90;;;;;;5009307;28;20458;-82
2020/12/26 10:50:33;;;;;;;17.30;12.47;;;4.80;99.90;;;;;;4998937;28;21017;-82
2020/12/26 10:52:59;;;;;;;12.17;8.67;;;4.70;99.90;;;;;;5029145;28;20211;-82
2020/12/26 10:55:25;;;;;;;15.00;9.30;;;4.90;99.90;;;;;;5032704;28;20280;-82
2020/12/26 10:57:52;;;;;;;15.90;9.20;;;4.90;99.90;;;;;;5035415;28;20658;-82
2020/12/26 11:00:18;;;;;;;14.17;10.60;;;4.90;99.90;;;;;;5031859;28;20274;-82
2020/12/26 11:02:43;;;;;;;19.23;10.63;;;4.90;99.90;;;;;;5012240;28;20399;-82
2020/12/26 11:05:10;;;;;;;18.23;10.60;;;5.00;99.90;;;;;;5001128;28;20549;-82
2020/12/26 11:07:36;;;;;;;8.40;7.33;;;5.20;99.90;;;;;;5033187;28;20215;-82
2020/12/26 11:10:03;;;;;;;23.47;13.70;;;5.30;99.90;;;;;;5028469;28;20429;-82
2020/12/26 11:12:28;;;;;;;12.03;9.27;;;5.20;99.90;;;;;;5019730;28;20238;-82
2020/12/26 11:14:54;;;;;;;11.57;8.70;;;5.10;99.90;;;;;;5032787;28;20511;-82
2020/12/26 11:17:20;;;;;;;9.77;6.50;;;5.30;99.90;;;;;;5036609;28;20606;-82
2020/12/26 11:19:45;;;;;;;10.93;7.23;;;5.30;99.90;;;;;;5049447;28;20671;-83
2020/12/26 11:22:11;;;;;;;11.20;8.87;;;5.20;99.90;;;;;;5042580;28;20236;-82
2020/12/26 11:24:37;;;;;;;13.07;7.80;;;5.40;99.90;;;;;;5039653;28;20206;-82
2020/12/26 11:27:02;;;;;;;7.37;6.50;;;5.40;99.90;;;;;;5052219;28;20221;-82
2020/12/26 11:29:29;;;;;;;10.50;5.73;;;5.20;99.90;;;;;;5057727;28;20643;-82
2020/12/26 11:31:59;;;;;;;9.07;6.30;;;5.20;99.90;;;;;;5049661;28;20271;-82
2020/12/26 11:34:25;;;;;;;8.90;6.73;;;5.10;99.90;;;;;;5041270;28;20424;-83
2020/12/26 11:36:53;;;;;;;8.43;6.07;;;5.20;99.90;;;;;;5037588;28;20931;-82
2020/12/26 11:39:19;;;;;;;7.67;6.83;;;5.10;99.90;;;;;;5056483;28;20553;-82
2020/12/26 11:41:46;;;;;;;9.83;6.43;;;5.30;99.90;;;;;;5025436;28;20408;-82
2020/12/26 11:44:12;;;;;;;11.60;8.17;;;5.40;99.90;;;;;;5041782;28;20210;-83
2020/12/26 11:46:38;;;;;;;7.63;5.40;;;5.60;99.90;;;;;;5042627;28;20382;-83
2020/12/26 11:49:04;;;;;;;6.20;5.23;;;5.90;99.90;;;;;;5057986;28;20418;-83
2020/12/26 11:51:55;;;;;;;6.10;5.30;;;5.80;99.90;;;;;;5057892;28;20240;-83
2020/12/26 11:54:47;;;;;;;6.30;5.70;;;5.80;99.90;;;;;;4970588;28;21289;-83
2020/12/26 11:57:13;;;;;;;8.60;5.43;;;6.00;99.90;;;;;;4913623;28;20524;-83
2020/12/26 11:59:40;;;;;;;8.97;5.90;;;6.40;99.90;;;;;;4919498;29;20380;-82
2020/12/26 12:02:06;;;;;;;9.90;4.93;;;6.30;99.90;;;;;;4923390;29;20465;-83
2020/12/26 12:04:31;;;;;;;7.40;5.20;;;6.50;99.90;;;;;;4929491;28;20479;-83
2020/12/26 12:06:57;;;;;;;5.10;4.57;;;6.40;99.90;;;;;;4903017;29;20654;-82
2020/12/26 12:09:23;;;;;;;14.17;4.93;;;5.90;99.90;;;;;;4886902;29;20246;-82
2020/12/26 12:11:53;;;;;;;6.03;4.90;;;5.90;99.90;;;;;;4897805;29;20225;-83
2020/12/26 12:14:19;;;;;;;6.20;4.90;;;5.90;99.90;;;;;;4931166;28;20262;-83
2020/12/26 12:16:47;;;;;;;6.70;4.97;;;6.00;99.90;;;;;;4919833;28;20441;-83
2020/12/26 12:19:13;;;;;;;8.07;5.53;;;5.80;99.90;;;;;;4915303;29;20709;-83
2020/12/26 12:21:39;;;;;;;6.87;5.50;;;5.60;99.90;;;;;;4898923;28;20533;-83
2020/12/26 12:24:05;;;;;;;7.00;4.70;;;5.90;99.90;;;;;;4893581;28;20218;-83
2020/12/26 12:26:31;;;;;;;7.47;5.20;;;5.70;99.90;;;;;;4901324;28;20420;-83
2020/12/26 12:28:56;;;;;;;4.60;3.80;;;5.70;99.90;;;;;;4907460;29;20210;-83
2020/12/26 12:31:24;;;;;;;5.63;3.77;;;6.10;99.90;;;;;;4940079;28;20392;-83
2020/12/26 12:33:50;;;;;;;7.30;4.30;;;6.20;99.90;;;;;;5013916;28;20689;-83
2020/12/26 12:36:16;;;;;;;8.33;3.50;;;6.00;99.90;;;;;;5062870;28;20810;-84
2020/12/26 12:38:42;;;;;;;4.10;3.03;;;6.10;99.90;;;;;;5056349;28;20384;-83
2020/12/26 12:41:08;;;;;;;3.90;3.23;;;5.90;99.90;;;;;;5062608;28;20415;-83
2020/12/26 12:43:35;;;;;;;3.13;2.70;;;5.70;99.90;;;;;;5021057;28;20491;-84
2020/12/26 12:46:01;;;;;;;4.77;3.63;;;5.60;99.90;;;;;;5035145;28;20732;-84
2020/12/26 12:48:27;;;;;;;5.60;3.70;;;5.60;99.90;;;;;;5040587;28;20411;-83
2020/12/26 12:50:53;;;;;;;5.00;3.07;;;5.60;99.90;;;;;;5057208;28;20423;-85
2020/12/26 12:53:20;;;;;;;3.87;3.40;;;5.60;99.90;;;;;;5030478;28;20654;-83
2020/12/26 12:55:47;;;;;;;7.07;3.10;;;5.90;99.90;;;;;;5036242;28;20434;-83
2020/12/26 12:58:13;;;;;;;4.63;3.13;;;5.70;99.90;;;;;;5055189;28;20388;-84